sensor_id;sensor_type;location;lat;lon;timestamp;P1;durP1;ratioP1;P2;durP2;ratioP2
21122;SDS011;10719;48.130;11.630;2023-12-20T00:00:34;5.00;;;2.00;;
21122;SDS011;10719;48.130;11.630;2023-12-20T00:03:02;5.28;;;1.92;;
21122;SDS011;10719;48.130;11.630;2023-12-20T00:05:28;4.95;;;1.75;;
21122;SDS011;10719;48.130;11.630;2023-12-20T00:07:53;4.10;;;1.70;;
21122;SDS011;10719;48.130;11.630;2023-12-20T00:10:19;4.68;;;1.70;;
21122;SDS011;10719;48.130;11.630;2023-12-20T00:12:45;5.07;;;1.92;;
21122;SDS011;10719;48.130;11.630;2023-12-20T00:15:10;4.43;;;1.65;;
21122;SDS011;10719;48.130;11.630;2023-12-20T00:17:36;4.70;;;1.77;;
21122;SDS011;10719;48.130;11.630;2023-12-20T00:20:02;5.93;;;1.75;;
21122;SDS011;10719;48.130;11.630;2023-12-20T00:22:27;8.00;;;2.03;;
21122;SDS011;10719;48.130;11.630;2023-12-20T00:24:53;4.72;;;1.85;;
21122;SDS011;10719;48.130;11.630;2023-12-20T00:27:18;3.38;;;1.40;;
21122;SDS011;10719;48.130;11.630;2023-12-20T00:29:44;5.05;;;1.65;;
21122;SDS011;10719;48.130;11.630;2023-12-20T00:32:13;4.22;;;1.73;;
21122;SDS011;10719;48.130;11.630;2023-12-20T00:34:39;3.85;;;1.67;;
21122;SDS011;10719;48.130;11.630;2023-12-20T00:37:04;4.38;;;1.85;;
21122;SDS011;10719;48.130;11.630;2023-12-20T00:39:31;5.10;;;1.73;;
21122;SDS011;10719;48.130;11.630;2023-12-20T00:41:58;4.80;;;1.67;;
21122;SDS011;10719;48.130;11.630;2023-12-20T00:44:23;3.63;;;1.63;;
21122;SDS011;10719;48.130;11.630;2023-12-20T00:46:49;2.88;;;1.42;;
21122;SDS011;10719;48.130;11.630;2023-12-20T00:49:14;3.95;;;1.50;;
21122;SDS011;10719;48.130;11.630;2023-12-20T00:51:40;4.47;;;1.42;;
21122;SDS011;10719;48.130;11.630;2023-12-20T00:54:06;4.50;;;1.35;;
21122;SDS011;10719;48.130;11.630;2023-12-20T00:56:31;3.33;;;1.20;;
21122;SDS011;10719;48.130;11.630;2023-12-20T00:58:57;3.58;;;1.30;;
21122;SDS011;10719;48.130;11.630;2023-12-20T01:01:22;2.80;;;1.30;;
21122;SDS011;10719;48.130;11.630;2023-12-20T01:03:48;4.10;;;1.48;;
21122;SDS011;10719;48.130;11.630;2023-12-20T01:06:16;6.55;;;1.48;;
21122;SDS011;10719;48.130;11.630;2023-12-20T01:08:41;3.05;;;1.23;;
21122;SDS011;10719;48.130;11.630;2023-12-20T01:11:07;2.33;;;1.13;;
21122;SDS011;10719;48.130;11.630;2023-12-20T01:13:33;2.95;;;1.40;;
21122;SDS011;10719;48.130;11.630;2023-12-20T01:15:58;4.13;;;1.38;;
21122;SDS011;10719;48.130;11.630;2023-12-20T01:18:24;3.15;;;1.17;;
21122;SDS011;10719;48.130;11.630;2023-12-20T01:20:49;3.67;;;1.33;;
21122;SDS011;10719;48.130;11.630;2023-12-20T01:23:15;2.08;;;1.13;;
21122;SDS011;10719;48.130;11.630;2023-12-20T01:25:41;4.35;;;1.55;;
21122;SDS011;10719;48.130;11.630;2023-12-20T01:28:06;5.10;;;1.35;;
21122;SDS011;10719;48.130;11.630;2023-12-20T01:30:32;3.88;;;1.35;;
21122;SDS011;10719;48.130;11.630;2023-12-20T01:32:59;5.93;;;1.48;;
21122;SDS011;10719;48.130;11.630;2023-12-20T01:35:26;2.45;;;1.17;;
21122;SDS011;10719;48.130;11.630;2023-12-20T01:37:52;2.88;;;1.00;;
21122;SDS011;10719;48.130;11.630;2023-12-20T01:40:21;4.40;;;1.52;;
21122;SDS011;10719;48.130;11.630;2023-12-20T01:42:47;2.90;;;0.90;;
21122;SDS011;10719;48.130;11.630;2023-12-20T01:45:22;2.75;;;1.17;;
21122;SDS011;10719;48.130;11.630;2023-12-20T01:47:48;3.50;;;1.25;;
21122;SDS011;10719;48.130;11.630;2023-12-20T01:50:13;4.70;;;1.55;;
21122;SDS011;10719;48.130;11.630;2023-12-20T01:52:39;2.65;;;1.10;;
21122;SDS011;10719;48.130;11.630;2023-12-20T01:55:06;3.92;;;1.30;;
21122;SDS011;10719;48.130;11.630;2023-12-20T01:57:38;4.32;;;1.42;;
21122;SDS011;10719;48.130;11.630;2023-12-20T02:00:07;3.42;;;1.23;;
21122;SDS011;10719;48.130;11.630;2023-12-20T02:02:34;3.30;;;1.27;;
21122;SDS011;10719;48.130;11.630;2023-12-20T02:05:03;3.17;;;1.00;;
21122;SDS011;10719;48.130;11.630;2023-12-20T02:07:30;1.65;;;0.95;;
21122;SDS011;10719;48.130;11.630;2023-12-20T02:09:56;3.70;;;1.00;;
21122;SDS011;10719;48.130;11.630;2023-12-20T02:12:22;3.05;;;1.20;;
21122;SDS011;10719;48.130;11.630;2023-12-20T02:14:48;1.85;;;1.02;;
21122;SDS011;10719;48.130;11.630;2023-12-20T02:17:14;2.72;;;1.10;;
21122;SDS011;10719;48.130;11.630;2023-12-20T02:19:40;1.83;;;0.90;;
21122;SDS011;10719;48.130;11.630;2023-12-20T02:22:10;1.67;;;0.70;;
21122;SDS011;10719;48.130;11.630;2023-12-20T02:24:36;2.67;;;1.08;;
21122;SDS011;10719;48.130;11.630;2023-12-20T02:27:01;1.67;;;0.98;;
21122;SDS011;10719;48.130;11.630;2023-12-20T02:29:28;1.60;;;0.68;;
21122;SDS011;10719;48.130;11.630;2023-12-20T02:31:53;3.30;;;0.95;;
21122;SDS011;10719;48.130;11.630;2023-12-20T02:34:19;2.92;;;0.98;;
21122;SDS011;10719;48.130;11.630;2023-12-20T02:36:44;2.45;;;1.02;;
21122;SDS011;10719;48.130;11.630;2023-12-20T02:39:10;1.55;;;0.57;;
21122;SDS011;10719;48.130;11.630;2023-12-20T02:41:35;1.42;;;0.73;;
21122;SDS011;10719;48.130;11.630;2023-12-20T02:44:01;0.77;;;0.68;;
21122;SDS011;10719;48.130;11.630;2023-12-20T02:46:28;1.38;;;0.70;;
21122;SDS011;10719;48.130;11.630;2023-12-20T02:48:54;2.47;;;0.70;;
21122;SDS011;10719;48.130;11.630;2023-12-20T02:51:20;1.23;;;0.63;;
21122;SDS011;10719;48.130;11.630;2023-12-20T02:53:45;1.65;;;0.70;;
21122;SDS011;10719;48.130;11.630;2023-12-20T02:56:11;0.45;;;0.45;;
21122;SDS011;10719;48.130;11.630;2023-12-20T02:58:36;1.50;;;0.60;;
21122;SDS011;10719;48.130;11.630;2023-12-20T03:01:02;2.10;;;0.80;;
21122;SDS011;10719;48.130;11.630;2023-12-20T03:03:28;2.05;;;0.63;;
21122;SDS011;10719;48.130;11.630;2023-12-20T03:05:53;1.45;;;0.50;;
21122;SDS011;10719;48.130;11.630;2023-12-20T03:08:19;0.95;;;0.63;;
21122;SDS011;10719;48.130;11.630;2023-12-20T03:10:44;2.53;;;0.70;;
21122;SDS011;10719;48.130;11.630;2023-12-20T03:13:10;2.60;;;0.88;;
21122;SDS011;10719;48.130;11.630;2023-12-20T03:15:35;1.23;;;0.60;;
21122;SDS011;10719;48.130;11.630;2023-12-20T03:18:02;1.80;;;0.60;;
21122;SDS011;10719;48.130;11.630;2023-12-20T03:20:27;1.83;;;0.85;;
21122;SDS011;10719;48.130;11.630;2023-12-20T03:22:53;1.17;;;0.80;;
21122;SDS011;10719;48.130;11.630;2023-12-20T03:25:19;2.42;;;0.90;;
21122;SDS011;10719;48.130;11.630;2023-12-20T03:27:44;3.78;;;0.82;;
21122;SDS011;10719;48.130;11.630;2023-12-20T03:30:10;0.95;;;0.60;;
21122;SDS011;10719;48.130;11.630;2023-12-20T03:32:36;1.60;;;0.70;;
21122;SDS011;10719;48.130;11.630;2023-12-20T03:35:03;1.08;;;0.60;;
21122;SDS011;10719;48.130;11.630;2023-12-20T03:37:29;0.70;;;0.65;;
21122;SDS011;10719;48.130;11.630;2023-12-20T03:39:54;1.58;;;0.65;;
21122;SDS011;10719;48.130;11.630;2023-12-20T03:42:20;1.10;;;0.55;;
21122;SDS011;10719;48.130;11.630;2023-12-20T03:44:45;0.57;;;0.40;;
21122;SDS011;10719;48.130;11.630;2023-12-20T03:47:11;0.60;;;0.50;;
21122;SDS011;10719;48.130;11.630;2023-12-20T03:49:37;0.68;;;0.52;;
21122;SDS011;10719;48.130;11.630;2023-12-20T03:52:03;1.33;;;0.60;;
21122;SDS011;10719;48.130;11.630;2023-12-20T03:54:29;1.90;;;0.73;;
21122;SDS011;10719;48.130;11.630;2023-12-20T03:56:55;1.83;;;0.88;;
21122;SDS011;10719;48.130;11.630;2023-12-20T03:59:20;1.50;;;0.75;;
21122;SDS011;10719;48.130;11.630;2023-12-20T04:01:46;1.10;;;0.63;;
21122;SDS011;10719;48.130;11.630;2023-12-20T04:04:12;1.30;;;0.75;;
21122;SDS011;10719;48.130;11.630;2023-12-20T04:06:38;1.08;;;0.60;;
21122;SDS011;10719;48.130;11.630;2023-12-20T04:09:03;0.60;;;0.43;;
21122;SDS011;10719;48.130;11.630;2023-12-20T04:11:29;0.60;;;0.60;;
21122;SDS011;10719;48.130;11.630;2023-12-20T04:13:55;1.65;;;0.63;;
21122;SDS011;10719;48.130;11.630;2023-12-20T04:16:21;2.08;;;0.57;;
21122;SDS011;10719;48.130;11.630;2023-12-20T04:18:46;0.95;;;0.50;;
21122;SDS011;10719;48.130;11.630;2023-12-20T04:21:12;1.58;;;0.60;;
21122;SDS011;10719;48.130;11.630;2023-12-20T04:23:37;1.15;;;0.70;;
21122;SDS011;10719;48.130;11.630;2023-12-20T04:26:03;1.35;;;0.50;;
21122;SDS011;10719;48.130;11.630;2023-12-20T04:28:28;1.38;;;0.68;;
21122;SDS011;10719;48.130;11.630;2023-12-20T04:30:57;1.02;;;0.60;;
21122;SDS011;10719;48.130;11.630;2023-12-20T04:33:22;0.95;;;0.60;;
21122;SDS011;10719;48.130;11.630;2023-12-20T04:35:48;0.80;;;0.52;;
21122;SDS011;10719;48.130;11.630;2023-12-20T04:38:13;1.40;;;0.77;;
21122;SDS011;10719;48.130;11.630;2023-12-20T04:40:39;1.35;;;0.73;;
21122;SDS011;10719;48.130;11.630;2023-12-20T04:43:06;0.98;;;0.75;;
21122;SDS011;10719;48.130;11.630;2023-12-20T04:45:32;0.63;;;0.50;;
21122;SDS011;10719;48.130;11.630;2023-12-20T04:47:58;2.58;;;0.70;;
21122;SDS011;10719;48.130;11.630;2023-12-20T04:50:24;1.00;;;0.50;;
21122;SDS011;10719;48.130;11.630;2023-12-20T04:52:49;1.50;;;0.70;;
21122;SDS011;10719;48.130;11.630;2023-12-20T04:55:15;1.85;;;0.60;;
21122;SDS011;10719;48.130;11.630;2023-12-20T04:57:41;1.67;;;0.68;;
21122;SDS011;10719;48.130;11.630;2023-12-20T05:00:06;3.30;;;0.80;;
21122;SDS011;10719;48.130;11.630;2023-12-20T05:02:33;3.05;;;1.10;;
21122;SDS011;10719;48.130;11.630;2023-12-20T05:05:00;2.35;;;0.90;;
21122;SDS011;10719;48.130;11.630;2023-12-20T05:07:25;1.20;;;0.80;;
21122;SDS011;10719;48.130;11.630;2023-12-20T05:09:51;2.20;;;0.98;;
21122;SDS011;10719;48.130;11.630;2023-12-20T05:12:16;1.90;;;0.85;;
21122;SDS011;10719;48.130;11.630;2023-12-20T05:14:42;2.78;;;1.05;;
21122;SDS011;10719;48.130;11.630;2023-12-20T05:17:08;3.13;;;1.08;;
21122;SDS011;10719;48.130;11.630;2023-12-20T05:19:33;3.83;;;1.17;;
21122;SDS011;10719;48.130;11.630;2023-12-20T05:22:02;2.67;;;1.05;;
21122;SDS011;10719;48.130;11.630;2023-12-20T05:24:27;2.83;;;1.05;;
21122;SDS011;10719;48.130;11.630;2023-12-20T05:26:53;3.22;;;1.40;;
21122;SDS011;10719;48.130;11.630;2023-12-20T05:29:19;1.63;;;1.05;;
21122;SDS011;10719;48.130;11.630;2023-12-20T05:31:44;2.67;;;1.27;;
21122;SDS011;10719;48.130;11.630;2023-12-20T05:34:10;3.97;;;1.38;;
21122;SDS011;10719;48.130;11.630;2023-12-20T05:36:36;4.03;;;1.45;;
21122;SDS011;10719;48.130;11.630;2023-12-20T05:39:02;3.50;;;1.35;;
21122;SDS011;10719;48.130;11.630;2023-12-20T05:41:32;3.30;;;1.35;;
21122;SDS011;10719;48.130;11.630;2023-12-20T05:43:58;4.28;;;1.60;;
21122;SDS011;10719;48.130;11.630;2023-12-20T05:46:24;2.90;;;1.40;;
21122;SDS011;10719;48.130;11.630;2023-12-20T05:48:50;4.05;;;1.50;;
21122;SDS011;10719;48.130;11.630;2023-12-20T05:51:16;3.20;;;1.10;;
21122;SDS011;10719;48.130;11.630;2023-12-20T05:53:42;2.38;;;1.25;;
21122;SDS011;10719;48.130;11.630;2023-12-20T05:56:09;3.38;;;1.30;;
21122;SDS011;10719;48.130;11.630;2023-12-20T05:58:35;3.78;;;1.27;;
21122;SDS011;10719;48.130;11.630;2023-12-20T06:01:03;3.58;;;1.30;;
21122;SDS011;10719;48.130;11.630;2023-12-20T06:03:30;2.60;;;0.88;;
21122;SDS011;10719;48.130;11.630;2023-12-20T06:05:55;1.83;;;0.90;;
21122;SDS011;10719;48.130;11.630;2023-12-20T06:08:21;3.03;;;1.30;;
21122;SDS011;10719;48.130;11.630;2023-12-20T06:10:47;2.95;;;1.33;;
21122;SDS011;10719;48.130;11.630;2023-12-20T06:13:13;1.95;;;1.10;;
21122;SDS011;10719;48.130;11.630;2023-12-20T06:15:39;3.95;;;1.52;;
21122;SDS011;10719;48.130;11.630;2023-12-20T06:18:05;3.72;;;1.55;;
21122;SDS011;10719;48.130;11.630;2023-12-20T06:20:31;2.65;;;1.20;;
21122;SDS011;10719;48.130;11.630;2023-12-20T06:22:57;2.10;;;1.08;;
21122;SDS011;10719;48.130;11.630;2023-12-20T06:25:23;4.95;;;1.63;;
21122;SDS011;10719;48.130;11.630;2023-12-20T06:27:48;6.00;;;1.63;;
21122;SDS011;10719;48.130;11.630;2023-12-20T06:30:15;2.85;;;1.38;;
21122;SDS011;10719;48.130;11.630;2023-12-20T06:32:41;2.55;;;1.50;;
21122;SDS011;10719;48.130;11.630;2023-12-20T06:35:08;1.60;;;0.75;;
21122;SDS011;10719;48.130;11.630;2023-12-20T06:37:34;3.53;;;1.48;;
21122;SDS011;10719;48.130;11.630;2023-12-20T06:40:00;3.13;;;1.42;;
21122;SDS011;10719;48.130;11.630;2023-12-20T06:42:26;3.42;;;1.33;;
21122;SDS011;10719;48.130;11.630;2023-12-20T06:44:52;6.40;;;1.67;;
21122;SDS011;10719;48.130;11.630;2023-12-20T06:47:17;1.83;;;0.93;;
21122;SDS011;10719;48.130;11.630;2023-12-20T06:49:43;2.10;;;1.30;;
21122;SDS011;10719;48.130;11.630;2023-12-20T06:52:08;2.28;;;1.10;;
21122;SDS011;10719;48.130;11.630;2023-12-20T06:54:34;4.13;;;1.50;;
21122;SDS011;10719;48.130;11.630;2023-12-20T06:57:00;3.42;;;1.40;;
21122;SDS011;10719;48.130;11.630;2023-12-20T06:59:27;4.72;;;1.70;;
21122;SDS011;10719;48.130;11.630;2023-12-20T07:01:54;3.55;;;1.30;;
21122;SDS011;10719;48.130;11.630;2023-12-20T07:04:19;2.00;;;1.15;;
21122;SDS011;10719;48.130;11.630;2023-12-20T07:06:46;1.65;;;1.10;;
21122;SDS011;10719;48.130;11.630;2023-12-20T07:09:13;2.13;;;1.23;;
21122;SDS011;10719;48.130;11.630;2023-12-20T07:11:38;3.25;;;1.23;;
21122;SDS011;10719;48.130;11.630;2023-12-20T07:14:04;3.05;;;1.10;;
21122;SDS011;10719;48.130;11.630;2023-12-20T07:16:29;3.15;;;1.33;;
21122;SDS011;10719;48.130;11.630;2023-12-20T07:18:55;2.03;;;0.83;;
21122;SDS011;10719;48.130;11.630;2023-12-20T07:21:22;6.88;;;1.70;;
21122;SDS011;10719;48.130;11.630;2023-12-20T07:23:47;1.57;;;0.97;;
21122;SDS011;10719;48.130;11.630;2023-12-20T07:26:13;1.77;;;0.95;;
21122;SDS011;10719;48.130;11.630;2023-12-20T07:28:39;3.20;;;1.00;;
21122;SDS011;10719;48.130;11.630;2023-12-20T07:31:05;1.43;;;0.60;;
21122;SDS011;10719;48.130;11.630;2023-12-20T07:33:31;1.67;;;0.75;;
21122;SDS011;10719;48.130;11.630;2023-12-20T07:35:56;1.85;;;0.73;;
21122;SDS011;10719;48.130;11.630;2023-12-20T07:38:22;3.85;;;1.00;;
21122;SDS011;10719;48.130;11.630;2023-12-20T07:40:48;2.75;;;0.85;;
21122;SDS011;10719;48.130;11.630;2023-12-20T07:43:13;0.60;;;0.50;;
21122;SDS011;10719;48.130;11.630;2023-12-20T07:45:39;1.20;;;0.80;;
21122;SDS011;10719;48.130;11.630;2023-12-20T07:48:06;2.03;;;0.90;;
21122;SDS011;10719;48.130;11.630;2023-12-20T07:50:32;2.70;;;0.70;;
21122;SDS011;10719;48.130;11.630;2023-12-20T07:52:57;1.40;;;0.65;;
21122;SDS011;10719;48.130;11.630;2023-12-20T07:55:25;1.20;;;0.60;;
21122;SDS011;10719;48.130;11.630;2023-12-20T07:57:51;1.40;;;0.57;;
21122;SDS011;10719;48.130;11.630;2023-12-20T08:00:17;2.33;;;0.82;;
21122;SDS011;10719;48.130;11.630;2023-12-20T08:02:43;1.88;;;0.80;;
21122;SDS011;10719;48.130;11.630;2023-12-20T08:05:08;1.70;;;0.63;;
21122;SDS011;10719;48.130;11.630;2023-12-20T08:07:34;2.47;;;0.70;;
21122;SDS011;10719;48.130;11.630;2023-12-20T08:10:00;1.33;;;0.80;;
21122;SDS011;10719;48.130;11.630;2023-12-20T08:12:25;0.77;;;0.60;;
21122;SDS011;10719;48.130;11.630;2023-12-20T08:14:52;1.27;;;0.60;;
21122;SDS011;10719;48.130;11.630;2023-12-20T08:17:18;2.25;;;1.02;;
21122;SDS011;10719;48.130;11.630;2023-12-20T08:19:44;2.72;;;1.00;;
21122;SDS011;10719;48.130;11.630;2023-12-20T08:22:10;1.85;;;0.80;;
21122;SDS011;10719;48.130;11.630;2023-12-20T08:24:35;1.13;;;0.70;;
21122;SDS011;10719;48.130;11.630;2023-12-20T08:27:01;2.70;;;0.73;;
21122;SDS011;10719;48.130;11.630;2023-12-20T08:29:27;1.75;;;0.63;;
21122;SDS011;10719;48.130;11.630;2023-12-20T08:31:52;1.20;;;0.80;;
21122;SDS011;10719;48.130;11.630;2023-12-20T08:34:19;1.83;;;1.00;;
21122;SDS011;10719;48.130;11.630;2023-12-20T08:36:44;2.50;;;1.13;;
21122;SDS011;10719;48.130;11.630;2023-12-20T08:39:10;0.57;;;0.57;;
21122;SDS011;10719;48.130;11.630;2023-12-20T08:41:35;1.48;;;0.70;;
21122;SDS011;10719;48.130;11.630;2023-12-20T08:44:02;1.48;;;0.70;;
21122;SDS011;10719;48.130;11.630;2023-12-20T08:46:28;1.92;;;0.70;;
21122;SDS011;10719;48.130;11.630;2023-12-20T08:48:54;1.23;;;0.70;;
21122;SDS011;10719;48.130;11.630;2023-12-20T08:51:20;2.45;;;0.50;;
21122;SDS011;10719;48.130;11.630;2023-12-20T08:53:47;2.45;;;0.70;;
21122;SDS011;10719;48.130;11.630;2023-12-20T08:56:14;0.52;;;0.43;;
21122;SDS011;10719;48.130;11.630;2023-12-20T08:58:40;1.77;;;0.70;;
21122;SDS011;10719;48.130;11.630;2023-12-20T09:01:05;0.93;;;0.70;;
21122;SDS011;10719;48.130;11.630;2023-12-20T09:03:32;2.70;;;0.80;;
21122;SDS011;10719;48.130;11.630;2023-12-20T09:05:58;1.92;;;0.85;;
21122;SDS011;10719;48.130;11.630;2023-12-20T09:08:23;1.35;;;0.80;;
21122;SDS011;10719;48.130;11.630;2023-12-20T09:10:49;2.33;;;0.80;;
21122;SDS011;10719;48.130;11.630;2023-12-20T09:13:14;1.27;;;0.70;;
21122;SDS011;10719;48.130;11.630;2023-12-20T09:15:40;1.20;;;0.60;;
21122;SDS011;10719;48.130;11.630;2023-12-20T09:18:06;1.17;;;0.63;;
21122;SDS011;10719;48.130;11.630;2023-12-20T09:20:31;1.02;;;0.70;;
21122;SDS011;10719;48.130;11.630;2023-12-20T09:22:57;0.45;;;0.45;;
21122;SDS011;10719;48.130;11.630;2023-12-20T09:25:23;1.50;;;0.60;;
21122;SDS011;10719;48.130;11.630;2023-12-20T09:27:50;1.60;;;0.80;;
21122;SDS011;10719;48.130;11.630;2023-12-20T09:30:17;1.50;;;0.80;;
21122;SDS011;10719;48.130;11.630;2023-12-20T09:32:43;1.90;;;1.00;;
21122;SDS011;10719;48.130;11.630;2023-12-20T09:35:09;1.50;;;0.70;;
21122;SDS011;10719;48.130;11.630;2023-12-20T09:37:34;2.10;;;0.73;;
21122;SDS011;10719;48.130;11.630;2023-12-20T09:40:00;2.55;;;0.60;;
21122;SDS011;10719;48.130;11.630;2023-12-20T09:42:31;1.40;;;0.80;;
21122;SDS011;10719;48.130;11.630;2023-12-20T09:45:03;0.85;;;0.75;;
21122;SDS011;10719;48.130;11.630;2023-12-20T09:47:32;1.70;;;0.90;;
21122;SDS011;10719;48.130;11.630;2023-12-20T09:49:58;1.77;;;0.80;;
21122;SDS011;10719;48.130;11.630;2023-12-20T09:52:24;4.97;;;1.08;;
21122;SDS011;10719;48.130;11.630;2023-12-20T09:54:50;1.42;;;0.60;;
21122;SDS011;10719;48.130;11.630;2023-12-20T09:57:18;0.75;;;0.52;;
21122;SDS011;10719;48.130;11.630;2023-12-20T09:59:43;1.67;;;0.80;;
21122;SDS011;10719;48.130;11.630;2023-12-20T10:02:11;2.03;;;0.40;;
21122;SDS011;10719;48.130;11.630;2023-12-20T10:04:43;0.50;;;0.50;;
21122;SDS011;10719;48.130;11.630;2023-12-20T10:07:12;3.13;;;0.63;;
21122;SDS011;10719;48.130;11.630;2023-12-20T10:09:38;1.98;;;0.95;;
21122;SDS011;10719;48.130;11.630;2023-12-20T10:12:04;1.58;;;0.70;;
21122;SDS011;10719;48.130;11.630;2023-12-20T10:14:30;2.20;;;0.90;;
21122;SDS011;10719;48.130;11.630;2023-12-20T10:17:03;1.38;;;0.70;;
21122;SDS011;10719;48.130;11.630;2023-12-20T10:19:30;0.98;;;0.63;;
21122;SDS011;10719;48.130;11.630;2023-12-20T10:21:57;3.28;;;1.30;;
21122;SDS011;10719;48.130;11.630;2023-12-20T10:24:29;1.75;;;0.93;;
21122;SDS011;10719;48.130;11.630;2023-12-20T10:27:04;1.60;;;0.85;;
21122;SDS011;10719;48.130;11.630;2023-12-20T10:29:34;1.63;;;0.65;;
21122;SDS011;10719;48.130;11.630;2023-12-20T10:32:21;2.65;;;1.33;;
21122;SDS011;10719;48.130;11.630;2023-12-20T10:34:51;2.50;;;1.08;;
21122;SDS011;10719;48.130;11.630;2023-12-20T10:37:18;1.23;;;0.82;;
21122;SDS011;10719;48.130;11.630;2023-12-20T10:39:43;1.58;;;0.90;;
21122;SDS011;10719;48.130;11.630;2023-12-20T10:42:13;1.80;;;0.70;;
21122;SDS011;10719;48.130;11.630;2023-12-20T10:44:41;1.85;;;0.88;;
21122;SDS011;10719;48.130;11.630;2023-12-20T10:47:07;2.70;;;1.10;;
21122;SDS011;10719;48.130;11.630;2023-12-20T10:49:36;2.28;;;0.93;;
21122;SDS011;10719;48.130;11.630;2023-12-20T10:52:04;2.15;;;0.80;;
21122;SDS011;10719;48.130;11.630;2023-12-20T10:54:31;3.40;;;1.38;;
21122;SDS011;10719;48.130;11.630;2023-12-20T10:56:57;2.47;;;1.02;;
21122;SDS011;10719;48.130;11.630;2023-12-20T10:59:23;4.20;;;1.23;;
21122;SDS011;10719;48.130;11.630;2023-12-20T11:01:50;2.72;;;1.00;;
21122;SDS011;10719;48.130;11.630;2023-12-20T11:04:19;3.03;;;1.02;;
21122;SDS011;10719;48.130;11.630;2023-12-20T11:06:53;1.08;;;0.80;;
21122;SDS011;10719;48.130;11.630;2023-12-20T11:09:24;1.35;;;0.73;;
21122;SDS011;10719;48.130;11.630;2023-12-20T11:12:12;1.33;;;0.77;;
21122;SDS011;10719;48.130;11.630;2023-12-20T11:17:18;2.85;;;1.10;;
21122;SDS011;10719;48.130;11.630;2023-12-20T11:22:22;3.97;;;1.05;;
21122;SDS011;10719;48.130;11.630;2023-12-20T11:24:50;3.80;;;1.50;;
21122;SDS011;10719;48.130;11.630;2023-12-20T11:27:18;1.45;;;0.82;;
21122;SDS011;10719;48.130;11.630;2023-12-20T11:29:51;2.85;;;1.23;;
21122;SDS011;10719;48.130;11.630;2023-12-20T11:34:56;2.10;;;1.13;;
21122;SDS011;10719;48.130;11.630;2023-12-20T11:37:30;2.90;;;1.15;;
21122;SDS011;10719;48.130;11.630;2023-12-20T11:40:02;5.07;;;1.40;;
21122;SDS011;10719;48.130;11.630;2023-12-20T11:42:40;2.20;;;1.10;;
21122;SDS011;10719;48.130;11.630;2023-12-20T11:45:11;2.88;;;1.27;;
21122;SDS011;10719;48.130;11.630;2023-12-20T11:47:40;3.38;;;1.23;;
21122;SDS011;10719;48.130;11.630;2023-12-20T11:50:07;2.60;;;1.30;;
21122;SDS011;10719;48.130;11.630;2023-12-20T11:52:33;3.22;;;1.38;;
21122;SDS011;10719;48.130;11.630;2023-12-20T11:54:59;3.08;;;1.30;;
21122;SDS011;10719;48.130;11.630;2023-12-20T11:57:25;1.85;;;1.13;;
21122;SDS011;10719;48.130;11.630;2023-12-20T11:59:51;3.72;;;1.45;;
21122;SDS011;10719;48.130;11.630;2023-12-20T12:02:16;3.55;;;1.38;;
21122;SDS011;10719;48.130;11.630;2023-12-20T12:04:42;2.08;;;0.93;;
21122;SDS011;10719;48.130;11.630;2023-12-20T12:07:08;1.88;;;1.00;;
21122;SDS011;10719;48.130;11.630;2023-12-20T12:09:34;1.85;;;1.23;;
21122;SDS011;10719;48.130;11.630;2023-12-20T12:12:00;3.60;;;1.35;;
21122;SDS011;10719;48.130;11.630;2023-12-20T12:14:26;2.13;;;1.10;;
21122;SDS011;10719;48.130;11.630;2023-12-20T12:16:52;1.95;;;1.10;;
21122;SDS011;10719;48.130;11.630;2023-12-20T12:19:24;3.22;;;1.20;;
21122;SDS011;10719;48.130;11.630;2023-12-20T12:21:51;2.53;;;1.02;;
21122;SDS011;10719;48.130;11.630;2023-12-20T12:24:33;2.83;;;1.20;;
21122;SDS011;10719;48.130;11.630;2023-12-20T12:26:59;2.20;;;1.00;;
21122;SDS011;10719;48.130;11.630;2023-12-20T12:29:24;2.45;;;0.98;;
21122;SDS011;10719;48.130;11.630;2023-12-20T12:31:50;1.08;;;0.85;;
21122;SDS011;10719;48.130;11.630;2023-12-20T12:34:17;0.98;;;0.82;;
21122;SDS011;10719;48.130;11.630;2023-12-20T12:36:43;4.15;;;1.08;;
21122;SDS011;10719;48.130;11.630;2023-12-20T12:39:11;3.03;;;1.15;;
21122;SDS011;10719;48.130;11.630;2023-12-20T12:41:37;2.63;;;1.13;;
21122;SDS011;10719;48.130;11.630;2023-12-20T12:44:03;2.05;;;0.93;;
21122;SDS011;10719;48.130;11.630;2023-12-20T12:46:28;1.65;;;1.05;;
21122;SDS011;10719;48.130;11.630;2023-12-20T12:48:54;2.47;;;1.15;;
21122;SDS011;10719;48.130;11.630;2023-12-20T12:51:20;1.35;;;0.68;;
21122;SDS011;10719;48.130;11.630;2023-12-20T12:53:45;3.55;;;1.15;;
21122;SDS011;10719;48.130;11.630;2023-12-20T12:56:12;3.00;;;1.30;;
21122;SDS011;10719;48.130;11.630;2023-12-20T12:58:38;4.15;;;1.05;;
21122;SDS011;10719;48.130;11.630;2023-12-20T13:01:04;3.13;;;1.23;;
21122;SDS011;10719;48.130;11.630;2023-12-20T13:03:30;2.78;;;1.05;;
21122;SDS011;10719;48.130;11.630;2023-12-20T13:05:55;2.22;;;1.10;;
21122;SDS011;10719;48.130;11.630;2023-12-20T13:08:21;1.60;;;0.85;;
21122;SDS011;10719;48.130;11.630;2023-12-20T13:10:47;3.00;;;1.30;;
21122;SDS011;10719;48.130;11.630;2023-12-20T13:13:12;3.45;;;1.30;;
21122;SDS011;10719;48.130;11.630;2023-12-20T13:15:38;3.35;;;1.30;;
21122;SDS011;10719;48.130;11.630;2023-12-20T13:18:04;3.95;;;1.30;;
21122;SDS011;10719;48.130;11.630;2023-12-20T13:20:31;4.30;;;1.60;;
21122;SDS011;10719;48.130;11.630;2023-12-20T13:22:56;3.47;;;1.40;;
21122;SDS011;10719;48.130;11.630;2023-12-20T13:25:22;3.80;;;1.50;;
21122;SDS011;10719;48.130;11.630;2023-12-20T13:27:48;2.90;;;1.42;;
21122;SDS011;10719;48.130;11.630;2023-12-20T13:30:15;3.92;;;1.30;;
21122;SDS011;10719;48.130;11.630;2023-12-20T13:32:41;4.30;;;1.48;;
21122;SDS011;10719;48.130;11.630;2023-12-20T13:35:07;2.75;;;1.50;;
21122;SDS011;10719;48.130;11.630;2023-12-20T13:37:33;3.30;;;1.35;;
21122;SDS011;10719;48.130;11.630;2023-12-20T13:39:59;2.33;;;1.30;;
21122;SDS011;10719;48.130;11.630;2023-12-20T13:42:24;2.90;;;1.42;;
21122;SDS011;10719;48.130;11.630;2023-12-20T13:44:52;4.10;;;1.20;;
21122;SDS011;10719;48.130;11.630;2023-12-20T13:47:18;3.72;;;1.50;;
21122;SDS011;10719;48.130;11.630;2023-12-20T13:49:44;4.50;;;1.48;;
21122;SDS011;10719;48.130;11.630;2023-12-20T13:52:10;2.85;;;1.15;;
21122;SDS011;10719;48.130;11.630;2023-12-20T13:54:37;3.75;;;1.95;;
21122;SDS011;10719;48.130;11.630;2023-12-20T13:57:03;8.07;;;2.13;;
21122;SDS011;10719;48.130;11.630;2023-12-20T13:59:28;5.40;;;1.65;;
21122;SDS011;10719;48.130;11.630;2023-12-20T14:01:54;8.25;;;1.73;;
21122;SDS011;10719;48.130;11.630;2023-12-20T14:04:20;2.85;;;1.33;;
21122;SDS011;10719;48.130;11.630;2023-12-20T14:06:47;4.15;;;1.65;;
21122;SDS011;10719;48.130;11.630;2023-12-20T14:09:13;4.68;;;1.40;;
21122;SDS011;10719;48.130;11.630;2023-12-20T14:11:39;3.28;;;1.20;;
21122;SDS011;10719;48.130;11.630;2023-12-20T14:14:06;4.55;;;1.55;;
21122;SDS011;10719;48.130;11.630;2023-12-20T14:16:33;3.72;;;1.40;;
21122;SDS011;10719;48.130;11.630;2023-12-20T14:18:59;6.68;;;2.17;;
21122;SDS011;10719;48.130;11.630;2023-12-20T14:21:25;5.25;;;1.60;;
21122;SDS011;10719;48.130;11.630;2023-12-20T14:23:51;4.13;;;1.40;;
21122;SDS011;10719;48.130;11.630;2023-12-20T14:26:17;3.30;;;1.63;;
21122;SDS011;10719;48.130;11.630;2023-12-20T14:28:42;4.13;;;1.85;;
21122;SDS011;10719;48.130;11.630;2023-12-20T14:31:08;4.13;;;1.52;;
21122;SDS011;10719;48.130;11.630;2023-12-20T14:33:35;6.18;;;2.17;;
21122;SDS011;10719;48.130;11.630;2023-12-20T14:36:03;6.10;;;1.88;;